createdAt,value
2018-03-25T00:05:48.220Z,9.46
2018-03-25T00:09:48.759Z,10.14
2018-03-25T00:15:49.329Z,9.87
2018-03-25T00:19:50.002Z,14.57
2018-03-25T00:21:50.503Z,10.48
2018-03-25T00:25:55.805Z,13.76
2018-03-25T00:31:56.547Z,9.86
2018-03-25T00:35:57.096Z,10.32
2018-03-25T00:41:57.935Z,10.98
2018-03-25T00:45:58.526Z,12.14
2018-03-25T00:47:59.256Z,12.31
2018-03-25T00:51:59.899Z,11.56
2018-03-25T00:58:00.517Z,10.5
2018-03-25T01:02:01.195Z,15.06
2018-03-25T01:08:01.777Z,11.48
2018-03-25T01:12:02.390Z,10.73
2018-03-25T01:14:02.930Z,8.73
2018-03-25T01:18:03.528Z,13.17
2018-03-25T01:24:04.083Z,8.69
2018-03-25T01:28:04.647Z,9.49
2018-03-25T01:34:05.229Z,9.09
2018-03-25T01:38:05.824Z,9.88
2018-03-25T01:40:06.365Z,9
2018-03-25T01:44:06.953Z,10.33
2018-03-25T01:50:07.499Z,10.51
2018-03-25T01:54:08.148Z,9.94
2018-03-25T02:00:09.042Z,8.96
2018-03-25T02:06:09.657Z,6.77
2018-03-25T02:10:10.215Z,8.88
2018-03-25T02:16:10.960Z,9.77
2018-03-25T02:20:11.514Z,10.82
2018-03-25T02:26:12.041Z,8.92
2018-03-25T02:32:12.684Z,8.9
2018-03-25T02:36:13.351Z,11.13
2018-03-25T02:42:14.112Z,8.98
2018-03-25T02:46:14.600Z,10.05
2018-03-25T02:52:15.395Z,10.25
2018-03-25T02:58:15.963Z,8.86
2018-03-25T03:02:16.598Z,12.19
2018-03-25T03:08:17.150Z,9.18
2018-03-25T03:12:17.712Z,9.97
2018-03-25T03:14:18.305Z,9.53
2018-03-25T03:18:18.816Z,11.12
2018-03-25T03:24:19.376Z,7.52
2018-03-25T03:28:19.921Z,11.9
2018-03-25T03:34:20.478Z,8
2018-03-25T03:38:21.163Z,12.49
2018-03-25T03:40:21.644Z,7.01
2018-03-25T03:44:22.141Z,9.36
2018-03-25T03:50:22.747Z,6.45
2018-03-25T03:54:23.302Z,10.14
2018-03-25T04:00:23.798Z,7.01
2018-03-25T04:04:24.536Z,7.15
2018-03-25T04:06:25.072Z,5.52
2018-03-25T04:10:25.607Z,8.88
2018-03-25T04:16:26.176Z,5.49
2018-03-25T04:20:26.761Z,8.95
2018-03-25T04:26:27.568Z,7.21
2018-03-25T04:32:28.184Z,4.73
2018-03-25T04:36:28.748Z,7.18
2018-03-25T04:42:29.262Z,8.9
2018-03-25T04:46:29.898Z,9.98
2018-03-25T04:52:30.524Z,10.55
2018-03-25T04:58:31.069Z,10.53
2018-03-25T05:02:31.640Z,10.03
2018-03-25T05:08:32.343Z,8.61
2018-03-25T05:12:32.939Z,8.56
2018-03-25T05:18:33.448Z,10.73
2018-03-25T05:24:34.079Z,30.01
2018-03-25T05:28:34.592Z,24.74
2018-03-25T05:34:35.266Z,22.21
2018-03-25T05:38:35.901Z,24.28
2018-03-25T05:40:36.414Z,8.67
2018-03-25T05:44:36.949Z,12.82
2018-03-25T05:50:37.568Z,10.76
2018-03-25T05:54:38.131Z,11.66
2018-03-25T06:00:38.842Z,14.34
2018-03-25T06:04:39.555Z,15.12
2018-03-25T06:06:40.006Z,12.08
2018-03-25T06:10:40.661Z,13.17
2018-03-25T06:16:41.207Z,14.33
2018-03-25T06:20:41.882Z,11.57
2018-03-25T06:26:42.347Z,8.63
2018-03-25T06:30:42.880Z,12.56
2018-03-25T06:32:43.366Z,12.59
2018-03-25T06:36:44.003Z,15.88
2018-03-25T06:42:44.592Z,12.14
2018-03-25T06:46:50.763Z,11.17
2018-03-25T06:52:51.382Z,8.19
2018-03-25T06:56:51.947Z,9.66
2018-03-25T06:59:02.213Z,10.5
2018-03-25T07:03:02.912Z,15.67
2018-03-25T07:09:03.690Z,11.6
2018-03-25T07:13:04.204Z,12.57
2018-03-25T07:19:04.945Z,10.19
2018-03-25T07:23:05.488Z,10.22
2018-03-25T07:25:06.140Z,8.6
2018-03-25T07:29:06.648Z,9.84
2018-03-25T07:35:07.234Z,9.66
2018-03-25T07:39:07.906Z,12.59
2018-03-25T07:45:08.781Z,15.95
2018-03-25T07:49:09.404Z,20.01
2018-03-25T07:51:09.874Z,10.93
2018-03-25T07:55:10.679Z,12.77
2018-03-25T08:01:12.109Z,10.94
2018-03-25T08:05:12.838Z,17.55
2018-03-25T08:11:13.389Z,11.9
2018-03-25T08:15:14.259Z,13.99
2018-03-25T08:17:14.878Z,9.03
2018-03-25T08:21:15.673Z,11.53
2018-03-25T08:27:16.305Z,8.89
2018-03-25T08:31:16.876Z,15.05
2018-03-25T08:37:17.389Z,10.54
2018-03-25T08:43:17.964Z,9.83
2018-03-25T08:47:18.534Z,10.32
2018-03-25T08:53:19.104Z,7.31
2018-03-25T08:57:19.632Z,5.84
2018-03-25T09:03:20.161Z,4.85
2018-03-25T09:09:20.847Z,6.78
2018-03-25T09:13:21.446Z,7.85
2018-03-25T09:19:22.046Z,5.07
2018-03-25T09:23:22.584Z,5.74
2018-03-25T09:29:23.194Z,6.67
2018-03-25T09:35:23.808Z,5.65
2018-03-25T09:39:24.394Z,7.34
2018-03-25T09:45:25.438Z,5.56
2018-03-25T09:49:25.931Z,8.46
2018-03-25T09:51:26.558Z,4.71
2018-03-25T09:55:27.025Z,6.38
2018-03-25T10:01:27.921Z,4.95
2018-03-25T10:05:28.505Z,8.36
2018-03-25T10:11:29.173Z,7.16
2018-03-25T10:15:30.576Z,8.79
2018-03-25T10:17:31.093Z,6.71
2018-03-25T10:21:31.747Z,7.28
2018-03-25T10:27:32.250Z,6.54
2018-03-25T10:31:32.939Z,7.55
2018-03-25T10:37:33.519Z,8.15
2018-03-25T10:41:34.066Z,6.89
2018-03-25T10:43:34.529Z,5.88
2018-03-25T10:47:39.877Z,6
2018-03-25T10:53:40.616Z,5.69
2018-03-25T10:57:41.354Z,6.71
2018-03-25T11:03:41.886Z,6.33
2018-03-25T11:07:42.603Z,7.74
2018-03-25T11:09:43.198Z,5.19
2018-03-25T11:13:49.388Z,5.5
2018-03-25T11:19:49.952Z,6.35
2018-03-25T11:23:50.619Z,6.95
2018-03-25T11:29:51.273Z,7.81
2018-03-25T11:33:51.873Z,7.68
2018-03-25T11:35:52.449Z,7.58
2018-03-25T11:39:53.028Z,6.93
2018-03-25T11:45:53.571Z,5.63
2018-03-25T11:54:55.194Z,8.82
2018-03-25T11:58:55.775Z,8.72
2018-03-25T12:04:56.545Z,5.43
2018-03-25T12:08:57.182Z,6.89
2018-03-25T12:14:57.825Z,7.32
2018-03-25T12:20:58.298Z,4.89
2018-03-25T12:24:58.989Z,6.22
2018-03-25T12:30:59.567Z,7.36
2018-03-25T12:35:00.184Z,7.36
2018-03-25T12:37:00.668Z,6.93
2018-03-25T12:41:01.299Z,7.96
2018-03-25T12:47:01.826Z,6.41
2018-03-25T12:51:02.365Z,8.94
2018-03-25T12:57:02.994Z,7.3
2018-03-25T13:01:03.573Z,9.8
2018-03-25T13:03:04.186Z,7.13
2018-03-25T13:07:04.835Z,8.11
2018-03-25T13:13:05.410Z,9.27
2018-03-25T13:17:06.083Z,11.27
2018-03-25T13:23:06.681Z,8.23
2018-03-25T13:27:07.199Z,10.46
2018-03-25T13:29:07.716Z,8.31
2018-03-25T13:33:08.407Z,10.73
2018-03-25T13:39:08.824Z,11.54
2018-03-25T13:43:09.428Z,13.63
2018-03-25T13:49:09.969Z,10.39
2018-03-25T13:55:10.558Z,10.68
2018-03-25T13:59:11.188Z,11.73
2018-03-25T14:05:11.715Z,11.42
2018-03-25T14:09:12.308Z,12.68
2018-03-25T14:15:13.084Z,12.25
2018-03-25T14:21:13.720Z,16.79
2018-03-25T14:25:14.319Z,16.23
2018-03-25T14:31:14.824Z,13.64
2018-03-25T14:35:15.459Z,16.29
2018-03-25T14:41:16.153Z,19.17
2018-03-25T14:47:16.652Z,15.14
2018-03-25T14:51:17.454Z,15.62
2018-03-25T14:57:17.932Z,11.43
2018-03-25T15:01:18.487Z,13.85
2018-03-25T15:03:18.943Z,12.9
2018-03-25T15:07:19.535Z,13.9
2018-03-25T15:13:20.120Z,11.38
2018-03-25T15:17:20.674Z,14.66
2018-03-25T15:23:21.620Z,8.87
2018-03-25T15:27:22.440Z,11.98
2018-03-25T15:29:22.983Z,8.4
2018-03-25T15:33:23.511Z,13.39
2018-03-25T15:39:24.217Z,11.01
2018-03-25T15:43:24.866Z,13.67
2018-03-25T15:49:25.490Z,14.24
2018-03-25T15:53:25.968Z,15.89
2018-03-25T15:55:26.386Z,12.48
2018-03-25T15:59:26.995Z,13.42
2018-03-25T16:05:27.554Z,8.88
2018-03-25T16:09:28.136Z,12.28
2018-03-25T16:15:28.700Z,11.42
2018-03-25T16:21:29.220Z,12.14
2018-03-25T16:25:29.889Z,12.38
2018-03-25T16:31:30.581Z,9.66
2018-03-25T16:35:31.147Z,14.38
2018-03-25T16:41:31.709Z,15.19
2018-03-25T16:47:32.323Z,12
2018-03-25T16:51:32.832Z,12.55
2018-03-25T16:57:33.362Z,11.31
2018-03-25T17:01:33.982Z,14.4
2018-03-25T17:03:34.628Z,11.65
2018-03-25T17:07:35.448Z,15.92
2018-03-25T17:13:36.040Z,13.95
2018-03-25T17:17:36.601Z,14.44
2018-03-25T17:23:37.278Z,12.26
2018-03-25T17:27:37.728Z,13.71
2018-03-25T17:29:38.225Z,14.92
2018-03-25T17:33:38.819Z,15.84
2018-03-25T17:39:39.427Z,14.54
2018-03-25T17:43:40.107Z,16.27
2018-03-25T17:49:40.774Z,11.9
2018-03-25T17:53:41.346Z,16.53
2018-03-25T17:55:42.044Z,12.69
2018-03-25T17:59:42.485Z,15.71
2018-03-25T18:05:43.168Z,15.48
2018-03-25T18:09:43.808Z,15.96
2018-03-25T18:15:44.280Z,13.39
2018-03-25T18:21:44.927Z,14.98
2018-03-25T18:25:45.676Z,18.8
2018-03-25T18:31:46.297Z,12.99
2018-03-25T18:35:46.927Z,17.79
2018-03-25T18:41:47.514Z,17.23
2018-03-25T18:47:48.268Z,15.67
2018-03-25T18:51:48.904Z,18.88
2018-03-25T18:57:49.494Z,11.32
2018-03-25T19:01:50.053Z,15.34
2018-03-25T19:07:50.602Z,17.15
2018-03-25T19:13:51.290Z,14.76
2018-03-25T19:17:51.909Z,15.52
2018-03-25T19:23:52.599Z,16.23
2018-03-25T19:27:53.157Z,17.54
2018-03-25T19:29:53.693Z,13.34
2018-03-25T19:33:54.333Z,17.86
2018-03-25T19:39:55.084Z,14.37
2018-03-25T19:43:55.647Z,16.6
2018-03-25T19:49:56.564Z,17.05
2018-03-25T19:53:57.104Z,19.36
2018-03-25T19:55:57.967Z,14.32
2018-03-25T19:59:58.596Z,16.36
2018-03-25T20:05:59.135Z,14.96
2018-03-25T20:09:59.676Z,16.96
2018-03-25T20:16:00.264Z,15.04
2018-03-25T20:20:00.839Z,19.09
2018-03-25T20:22:01.345Z,14.53
2018-03-25T20:26:01.880Z,14.95
2018-03-25T20:32:02.448Z,13.95
2018-03-25T20:36:03.677Z,16.47
2018-03-25T20:42:04.175Z,12.91
2018-03-25T20:48:04.859Z,16.65
2018-03-25T20:52:05.505Z,16.71
2018-03-25T20:58:06.030Z,16.12
2018-03-25T21:02:06.599Z,19.5
2018-03-25T21:08:07.285Z,18.4
2018-03-25T21:14:07.852Z,12.44
2018-03-25T21:18:08.473Z,14.54
2018-03-25T21:24:09.107Z,14.08
2018-03-25T21:28:09.682Z,15.43
2018-03-25T21:34:10.311Z,14.84
2018-03-25T21:40:10.908Z,13.9
2018-03-25T21:44:11.392Z,15.79
2018-03-25T21:50:12.032Z,23.69
2018-03-25T21:54:12.571Z,21.52
2018-03-25T21:56:13.195Z,14.69
2018-03-25T22:00:14.033Z,13.92
2018-03-25T22:06:14.776Z,10.99
2018-03-25T22:10:15.240Z,13.45
2018-03-25T22:16:15.754Z,12.81
2018-03-25T22:20:16.240Z,12.9
2018-03-25T22:22:16.691Z,12.03
2018-03-25T22:26:17.230Z,13.27
2018-03-25T22:32:17.825Z,15.68
2018-03-25T22:36:18.368Z,15.56
2018-03-25T22:42:18.983Z,10.32
2018-03-25T22:48:19.544Z,11.35
2018-03-25T22:52:20.149Z,12.72
2018-03-25T22:58:20.678Z,13.36
2018-03-25T23:02:21.259Z,17.13
2018-03-25T23:08:21.775Z,14.82
2018-03-25T23:14:22.658Z,14.14
2018-03-25T23:18:23.103Z,17.03
2018-03-25T23:24:23.786Z,13.75
2018-03-25T23:28:24.355Z,15.77
2018-03-25T23:34:25.028Z,16.45
2018-03-25T23:40:25.598Z,13.31
2018-03-25T23:44:26.091Z,19.07
2018-03-25T23:50:26.752Z,12.22
2018-03-25T23:54:27.273Z,16.5
2018-03-25T23:56:27.765Z,15.01
